createdAt,value
2023-05-25T00:00:00.603Z,9.4746
2023-05-25T00:01:03.317Z,9.4368
2023-05-25T00:02:02.889Z,9.4623
2023-05-25T00:03:04.560Z,9.4637
2023-05-25T00:04:06.573Z,9.5582
2023-05-25T00:05:07.482Z,9.6103
2023-05-25T00:06:08.995Z,9.5927
2023-05-25T00:07:09.371Z,9.6325
2023-05-25T00:08:10.060Z,9.6289
2023-05-25T00:09:12.363Z,9.6701
2023-05-25T00:10:13.816Z,9.6611
2023-05-25T00:11:14.682Z,9.6542
2023-05-25T00:12:14.686Z,9.6441
2023-05-25T00:13:16.246Z,9.6453
2023-05-25T00:14:17.733Z,9.5845
2023-05-25T00:15:19.058Z,9.5855
2023-05-25T00:16:20.735Z,9.5497
2023-05-25T00:17:21.546Z,9.6128
2023-05-25T00:18:23.407Z,9.5781
2023-05-25T00:19:24.574Z,9.5586
2023-05-25T00:20:25.841Z,9.5836
2023-05-25T00:21:27.607Z,9.5252
2023-05-25T00:22:28.695Z,9.5141
2023-05-25T00:23:29.572Z,9.5564
2023-05-25T00:24:31.033Z,9.5348
2023-05-25T00:25:32.669Z,9.5348
2023-05-25T00:26:34.831Z,9.5998
2023-05-25T00:27:37.486Z,9.6289
2023-05-25T00:28:39.272Z,9.6057
2023-05-25T00:29:41.553Z,9.6059
2023-05-25T00:30:40.183Z,9.6535
2023-05-25T00:31:41.015Z,9.6828
2023-05-25T00:32:42.711Z,9.6219
2023-05-25T00:33:43.517Z,9.5801
2023-05-25T00:34:44.992Z,9.6224
2023-05-25T00:35:46.657Z,9.6131
2023-05-25T00:36:48.346Z,9.6588
2023-05-25T00:37:49.215Z,9.6354
2023-05-25T00:38:50.923Z,9.6670
2023-05-25T00:39:51.742Z,9.5927
2023-05-25T00:40:52.683Z,9.6240
2023-05-25T00:41:53.594Z,9.6586
2023-05-25T00:42:55.008Z,9.6652
2023-05-25T00:43:56.675Z,9.6768
2023-05-25T00:44:57.542Z,9.6365
2023-05-25T00:45:58.436Z,9.5790
2023-05-25T00:47:00.161Z,9.5941
2023-05-25T00:48:01.759Z,9.5428
2023-05-25T00:49:03.575Z,9.5566
2023-05-25T00:50:03.571Z,9.4897
2023-05-25T00:51:05.686Z,9.5075
2023-05-25T00:52:06.961Z,9.4498
2023-05-25T00:53:09.074Z,9.4195
2023-05-25T00:54:09.368Z,9.4255
2023-05-25T00:55:11.040Z,9.3926
2023-05-25T00:56:12.770Z,9.3952
2023-05-25T00:57:14.847Z,9.4469
2023-05-25T00:59:15.964Z,9.5118
2023-05-25T01:00:17.121Z,9.5036
2023-05-25T01:02:20.556Z,9.5187
2023-05-25T01:03:22.239Z,9.5687
2023-05-25T01:04:23.360Z,9.5226
2023-05-25T01:05:24.130Z,9.5395
2023-05-25T01:06:25.699Z,9.5193
2023-05-25T01:07:27.204Z,9.4951
2023-05-25T01:08:27.252Z,9.4994
2023-05-25T01:09:27.349Z,9.4686
2023-05-25T01:10:28.244Z,9.3893
2023-05-25T01:11:30.102Z,9.2532
2023-05-25T01:12:31.749Z,9.3103
2023-05-25T01:13:33.275Z,9.3366
2023-05-25T01:14:34.753Z,9.2804
2023-05-25T01:15:35.570Z,9.1642
2023-05-25T01:16:37.191Z,9.1672
2023-05-25T01:17:38.765Z,9.2017
2023-05-25T01:18:38.853Z,9.0458
2023-05-25T01:19:40.480Z,9.0416
2023-05-25T01:20:41.923Z,9.0287
2023-05-25T01:21:42.828Z,9.0338
2023-05-25T01:22:44.323Z,9.0675
2023-05-25T01:23:45.751Z,8.9423
2023-05-25T01:24:46.415Z,8.8515
2023-05-25T01:25:47.483Z,8.8746
2023-05-25T01:26:48.229Z,8.8789
2023-05-25T01:27:49.480Z,8.8553
2023-05-25T01:28:50.657Z,8.8609
2023-05-25T01:29:52.635Z,8.7497
2023-05-25T01:30:53.551Z,8.7223
2023-05-25T01:31:55.594Z,8.7838
2023-05-25T01:32:56.492Z,8.7696
2023-05-25T01:33:57.866Z,8.7159
2023-05-25T01:34:59.262Z,8.7219
2023-05-25T01:36:00.884Z,8.7032
2023-05-25T01:37:02.702Z,8.6052
2023-05-25T01:38:03.612Z,8.6685
2023-05-25T01:39:05.622Z,8.7306
2023-05-25T01:40:06.495Z,8.6981
2023-05-25T01:41:08.449Z,8.6952
2023-05-25T01:42:10.450Z,8.6504
2023-05-25T01:44:12.039Z,8.7544
2023-05-25T01:45:15.227Z,8.7094
2023-05-25T01:46:17.412Z,8.7054
2023-05-25T01:47:18.340Z,8.7940
2023-05-25T01:48:19.992Z,8.8134
2023-05-25T01:49:20.201Z,8.8152
2023-05-25T01:50:21.119Z,8.8052
2023-05-25T01:51:23.638Z,8.8050
2023-05-25T01:52:25.250Z,8.8111
2023-05-25T01:53:26.426Z,8.7154
2023-05-25T01:54:27.680Z,8.7422
2023-05-25T01:55:29.335Z,8.7095
2023-05-25T01:56:30.804Z,8.6329
2023-05-25T01:57:32.615Z,8.6830
2023-05-25T01:58:33.816Z,8.6615
2023-05-25T01:59:35.369Z,8.6105
2023-05-25T02:00:36.906Z,8.6982
2023-05-25T02:01:38.838Z,8.7256
2023-05-25T02:02:39.910Z,8.7277
2023-05-25T02:03:40.991Z,8.7259
2023-05-25T02:04:41.634Z,8.6374
2023-05-25T02:05:43.108Z,8.6297
2023-05-25T02:06:44.190Z,8.6063
2023-05-25T02:07:45.848Z,8.5379
2023-05-25T02:08:46.653Z,8.5771
2023-05-25T02:09:47.589Z,8.5812
2023-05-25T02:10:48.727Z,8.5550
2023-05-25T02:11:49.636Z,8.5828
2023-05-25T02:12:50.483Z,8.4819
2023-05-25T02:13:51.311Z,8.5350
2023-05-25T02:14:52.169Z,8.5060
2023-05-25T02:15:53.004Z,8.4745
2023-05-25T02:16:53.821Z,8.4732
2023-05-25T02:17:54.650Z,8.4620
2023-05-25T02:18:54.794Z,8.4606
2023-05-25T02:19:55.883Z,8.4697
2023-05-25T02:20:56.847Z,8.4428
2023-05-25T02:21:58.685Z,8.4517
2023-05-25T02:22:59.842Z,8.4088
2023-05-25T02:24:01.328Z,8.4037
2023-05-25T02:25:02.762Z,8.4368
2023-05-25T02:26:03.763Z,8.3206
2023-05-25T02:27:04.381Z,8.3538
2023-05-25T02:28:06.680Z,8.3684
2023-05-25T02:29:08.180Z,8.3663
2023-05-25T02:30:09.174Z,8.3782
2023-05-25T02:31:11.451Z,8.2904
2023-05-25T02:32:12.655Z,8.2536
2023-05-25T02:33:12.673Z,8.2854
2023-05-25T02:34:14.575Z,8.2618
2023-05-25T02:35:14.910Z,8.2635
2023-05-25T02:36:16.670Z,8.2972
2023-05-25T02:37:17.482Z,8.2722
2023-05-25T02:38:18.908Z,8.2248
2023-05-25T02:39:19.736Z,8.2128
2023-05-25T02:40:20.628Z,8.1316
2023-05-25T02:41:22.069Z,8.1334
2023-05-25T02:42:23.592Z,8.1379
2023-05-25T02:43:24.400Z,8.1815
2023-05-25T02:44:25.842Z,8.1477
2023-05-25T02:45:26.587Z,8.1454
2023-05-25T02:46:27.514Z,8.0722
2023-05-25T02:47:29.113Z,8.0467
2023-05-25T02:48:30.213Z,8.0071
2023-05-25T02:49:31.060Z,7.9731
2023-05-25T02:50:32.035Z,7.9927
2023-05-25T02:51:34.314Z,8.0081
2023-05-25T02:52:35.761Z,7.9575
2023-05-25T02:53:36.630Z,7.9112
2023-05-25T02:54:37.911Z,7.9181
2023-05-25T02:55:39.418Z,7.8915
2023-05-25T02:56:41.000Z,7.8858
2023-05-25T02:57:42.043Z,7.9025
2023-05-25T03:00:43.899Z,7.8715
2023-05-25T03:01:45.800Z,7.8933
2023-05-25T03:02:47.295Z,7.8750
2023-05-25T03:03:48.772Z,7.8505
2023-05-25T03:04:49.696Z,7.8440
2023-05-25T03:05:51.746Z,7.8523
2023-05-25T03:06:52.815Z,7.8446
2023-05-25T03:07:53.597Z,7.8061
2023-05-25T03:08:56.530Z,7.8131
2023-05-25T03:09:57.986Z,7.7884
2023-05-25T03:10:59.513Z,7.7914
2023-05-25T03:12:00.463Z,7.7787
2023-05-25T03:13:02.055Z,7.7842
2023-05-25T03:14:03.585Z,7.8230
2023-05-25T03:15:04.640Z,7.7803
2023-05-25T03:16:07.050Z,7.7589
2023-05-25T03:17:08.747Z,7.8133
2023-05-25T03:18:10.856Z,7.8336
2023-05-25T03:26:18.492Z,7.8514
2023-05-25T03:27:19.102Z,7.8518
2023-05-25T03:28:19.865Z,7.8547
2023-05-25T03:29:21.346Z,7.8458
2023-05-25T03:30:22.999Z,7.8532
2023-05-25T03:31:24.485Z,7.8589
2023-05-25T03:32:25.741Z,7.8460
2023-05-25T03:33:26.686Z,7.8547
2023-05-25T03:34:28.373Z,7.8751
2023-05-25T03:35:30.341Z,7.8848
2023-05-25T03:36:32.968Z,7.9120
2023-05-25T03:41:35.864Z,7.9386
2023-05-25T03:42:36.659Z,7.9522
2023-05-25T03:45:41.872Z,8.0531
2023-05-25T03:46:43.683Z,8.0574
2023-05-25T03:47:44.488Z,8.0709
2023-05-25T03:48:45.902Z,8.1383
2023-05-25T03:49:47.120Z,7.9893
2023-05-25T03:50:47.930Z,8.0039
2023-05-25T03:51:49.738Z,8.0079
2023-05-25T03:52:50.589Z,8.0763
2023-05-25T03:53:51.407Z,8.0564
2023-05-25T03:54:52.232Z,8.0459
2023-05-25T03:55:53.076Z,8.0358
2023-05-25T03:56:54.981Z,8.0815
2023-05-25T03:57:56.509Z,8.1125
2023-05-25T03:58:56.791Z,8.1171
2023-05-25T03:59:58.411Z,8.0612
2023-05-25T04:00:59.782Z,8.1107
2023-05-25T04:02:00.594Z,8.1281
2023-05-25T04:03:02.752Z,8.1740
2023-05-25T04:04:04.320Z,8.1892
2023-05-25T04:05:05.088Z,8.1636
2023-05-25T04:06:06.438Z,8.1859
2023-05-25T04:07:07.133Z,8.2056
2023-05-25T04:08:10.252Z,8.1963
2023-05-25T04:11:11.631Z,8.2576
2023-05-25T04:12:12.354Z,8.1807
2023-05-25T04:13:13.158Z,8.1855
2023-05-25T04:14:13.993Z,8.2469
2023-05-25T04:15:14.804Z,8.3193
2023-05-25T04:16:15.630Z,8.3042
2023-05-25T04:17:17.632Z,8.3212
2023-05-25T04:18:18.332Z,8.2674
2023-05-25T04:19:19.190Z,8.3244
2023-05-25T04:20:19.997Z,8.3240
2023-05-25T04:21:20.958Z,8.4051
2023-05-25T04:22:21.795Z,8.3989
2023-05-25T04:23:23.636Z,8.3938
2023-05-25T04:24:25.397Z,8.4392
2023-05-25T04:25:29.397Z,8.4462
2023-05-25T04:26:28.848Z,8.5032
2023-05-25T04:27:29.580Z,8.4444
2023-05-25T04:28:30.933Z,8.5206
2023-05-25T04:29:31.759Z,8.5758
2023-05-25T04:30:33.234Z,8.5273
2023-05-25T04:31:34.661Z,8.5304
2023-05-25T04:37:38.745Z,8.6299
2023-05-25T04:38:40.319Z,8.6588
2023-05-25T04:39:40.996Z,8.7082
2023-05-25T04:40:41.725Z,8.6926
2023-05-25T04:41:43.795Z,8.6328
2023-05-25T04:42:44.625Z,8.7891
2023-05-25T04:44:03.533Z,8.8395
2023-05-25T04:48:20.266Z,8.8006
2023-05-25T04:49:22.250Z,8.8649
2023-05-25T04:50:22.460Z,8.8317
2023-05-25T04:51:23.436Z,8.9105
2023-05-25T04:52:25.126Z,8.9351
2023-05-25T04:53:25.856Z,8.9098
2023-05-25T04:54:27.025Z,8.8928
2023-05-25T04:55:28.559Z,8.9602
2023-05-25T04:56:30.175Z,9.0477
2023-05-25T04:57:32.496Z,9.0726
2023-05-25T04:58:33.329Z,9.0886
2023-05-25T04:59:34.686Z,9.1804
2023-05-25T05:00:36.146Z,9.2429
2023-05-25T05:01:37.860Z,9.2720
2023-05-25T05:02:38.761Z,9.2174
2023-05-25T05:03:39.706Z,9.2345
2023-05-25T05:04:42.145Z,9.2925
2023-05-25T05:05:43.362Z,9.1871
2023-05-25T05:06:45.052Z,9.1703
2023-05-25T05:07:46.620Z,9.1382
2023-05-25T05:09:48.108Z,9.1923
2023-05-25T05:12:51.446Z,9.3505
2023-05-25T05:13:52.436Z,9.3719
2023-05-25T05:14:52.456Z,9.3525
2023-05-25T05:15:53.250Z,9.3794
2023-05-25T05:16:55.067Z,9.3673
2023-05-25T05:17:56.330Z,9.3719
2023-05-25T05:18:58.038Z,9.4334
2023-05-25T05:19:59.684Z,9.4733
2023-05-25T05:21:01.683Z,9.4982
2023-05-25T05:25:06.187Z,9.6755
2023-05-25T05:26:06.715Z,9.7344
2023-05-25T05:27:08.145Z,9.5581
2023-05-25T05:28:09.621Z,9.6204
2023-05-25T05:29:10.137Z,9.4374
2023-05-25T05:30:12.088Z,9.4310
2023-05-25T05:31:14.804Z,9.5865
2023-05-25T05:32:17.281Z,9.4975
2023-05-25T05:34:17.506Z,9.4621
2023-05-25T05:35:18.869Z,9.4783
2023-05-25T05:36:19.748Z,9.6146
2023-05-25T05:37:21.326Z,9.6466
2023-05-25T05:38:23.040Z,9.7174
2023-05-25T05:39:24.035Z,9.7470
2023-05-25T05:40:25.576Z,9.7521
2023-05-25T05:41:26.410Z,9.7096
2023-05-25T05:42:28.217Z,9.7059
2023-05-25T05:43:29.081Z,9.6611
2023-05-25T05:44:30.577Z,9.7890
2023-05-25T05:45:32.131Z,9.7340
2023-05-25T05:46:33.074Z,9.7559
2023-05-25T05:47:34.622Z,9.7443
2023-05-25T05:48:34.979Z,9.8335
2023-05-25T05:49:35.823Z,9.9106
2023-05-25T05:50:39.033Z,9.8212
2023-05-25T05:51:38.542Z,9.8630
2023-05-25T05:52:40.500Z,9.9678
2023-05-25T05:53:41.414Z,10.0267
2023-05-25T05:54:44.216Z,10.0733
2023-05-25T05:55:47.866Z,10.0782
2023-05-25T05:56:47.673Z,10.1755
2023-05-25T05:58:50.861Z,10.2713
2023-05-25T05:59:52.235Z,10.1126
2023-05-25T06:04:56.073Z,10.0528
2023-05-25T06:05:57.975Z,10.1604
2023-05-25T06:06:58.793Z,10.2391
2023-05-25T06:08:00.297Z,10.1947
2023-05-25T06:09:01.148Z,10.1324
2023-05-25T06:10:02.274Z,10.2887
2023-05-25T06:11:03.547Z,10.3424
2023-05-25T06:12:04.431Z,10.4124
2023-05-25T06:13:05.364Z,10.4467
2023-05-25T06:14:06.970Z,10.2671
2023-05-25T06:15:07.885Z,10.3388
2023-05-25T06:16:11.791Z,10.5002
2023-05-25T06:18:11.479Z,10.5304
2023-05-25T06:19:13.018Z,10.5694
2023-05-25T06:20:15.291Z,10.4843
2023-05-25T06:22:17.440Z,10.5196
2023-05-25T06:23:19.411Z,10.6940
2023-05-25T06:24:20.579Z,10.6629
2023-05-25T06:25:21.854Z,10.8264
2023-05-25T06:26:22.845Z,10.8414
2023-05-25T06:27:23.794Z,10.9703
2023-05-25T06:28:25.392Z,10.8487
2023-05-25T06:29:27.072Z,10.9738
2023-05-25T06:30:28.649Z,11.0929
2023-05-25T06:31:29.524Z,11.1072
2023-05-25T06:32:31.184Z,11.1190
2023-05-25T06:33:32.752Z,11.2037
2023-05-25T06:34:35.439Z,11.0927
2023-05-25T06:35:34.518Z,11.3437
2023-05-25T06:36:36.081Z,11.3550
2023-05-25T06:37:37.644Z,11.1477
2023-05-25T06:38:38.570Z,11.2925
2023-05-25T06:39:40.882Z,11.3599
2023-05-25T06:40:42.138Z,11.3032
2023-05-25T06:41:43.037Z,11.4629
2023-05-25T06:42:44.691Z,11.3795
2023-05-25T06:43:46.340Z,11.3632
2023-05-25T06:44:47.274Z,11.2812
2023-05-25T06:45:48.288Z,11.4174
2023-05-25T06:46:49.908Z,11.5543
2023-05-25T06:48:50.763Z,11.6675
2023-05-25T06:49:52.269Z,11.8234
2023-05-25T06:50:52.686Z,11.8209
2023-05-25T06:51:53.756Z,11.7411
2023-05-25T06:52:55.844Z,11.7598
2023-05-25T06:53:57.476Z,11.9556
2023-05-25T06:54:58.399Z,11.7542
2023-05-25T06:56:00.263Z,11.9656
2023-05-25T06:57:01.927Z,11.9717
2023-05-25T06:58:02.887Z,11.7780
2023-05-25T06:59:03.615Z,11.6844
2023-05-25T07:00:05.244Z,11.7834
2023-05-25T07:01:06.140Z,11.7198
2023-05-25T07:02:07.008Z,11.7270
2023-05-25T07:03:07.925Z,11.6188
2023-05-25T07:04:08.919Z,11.7177
2023-05-25T07:05:09.861Z,11.9504
2023-05-25T07:06:11.043Z,11.8390
2023-05-25T07:07:12.138Z,11.8018
2023-05-25T07:08:14.016Z,11.7592
2023-05-25T07:09:15.023Z,11.8472
2023-05-25T07:10:15.924Z,11.9203
2023-05-25T07:11:16.798Z,11.9864
2023-05-25T07:12:18.409Z,12.3035
2023-05-25T07:13:20.054Z,12.4742
2023-05-25T07:14:20.939Z,12.6611
2023-05-25T07:15:22.626Z,12.5726
2023-05-25T07:16:24.393Z,12.5140
2023-05-25T07:17:26.366Z,12.4880
2023-05-25T07:18:27.694Z,12.5654
2023-05-25T07:19:29.727Z,12.1817
2023-05-25T07:20:30.785Z,12.0036
2023-05-25T07:21:31.722Z,11.8999
2023-05-25T07:22:32.613Z,11.7746
2023-05-25T07:23:32.608Z,11.7097
2023-05-25T07:24:33.595Z,11.6891
2023-05-25T07:25:34.472Z,11.8100
2023-05-25T07:26:35.263Z,11.9396
2023-05-25T07:27:36.164Z,12.0764
2023-05-25T07:28:36.640Z,12.2206
2023-05-25T07:29:37.596Z,12.3891
2023-05-25T07:30:38.574Z,12.6852
2023-05-25T07:31:39.798Z,13.1035
2023-05-25T07:32:40.827Z,13.3265
2023-05-25T07:33:41.368Z,13.1187
2023-05-25T07:34:42.601Z,13.0617
2023-05-25T07:35:44.027Z,13.1249
2023-05-25T07:36:45.358Z,13.4102
2023-05-25T07:37:46.951Z,13.6426
2023-05-25T07:38:48.320Z,13.3871
2023-05-25T07:39:49.254Z,13.6489
2023-05-25T07:40:50.912Z,13.9545
2023-05-25T07:41:52.658Z,13.8439
2023-05-25T07:42:54.317Z,14.2474
2023-05-25T07:43:55.308Z,14.1401
2023-05-25T07:44:57.448Z,14.1777
2023-05-25T07:45:59.032Z,14.2004
2023-05-25T07:47:01.345Z,14.2503
2023-05-25T07:48:02.519Z,14.1983
2023-05-25T07:49:04.153Z,14.2163
2023-05-25T07:50:05.708Z,14.9534
2023-05-25T07:51:08.088Z,15.0457
2023-05-25T07:52:09.045Z,14.8038
2023-05-25T07:53:10.695Z,14.8069
2023-05-25T07:54:12.873Z,15.4351
2023-05-25T08:00:18.285Z,15.5315
2023-05-25T08:01:19.378Z,15.7641
2023-05-25T08:02:20.464Z,16.1556
2023-05-25T08:03:28.907Z,16.2251
2023-05-25T08:04:23.199Z,16.1547
2023-05-25T08:05:23.820Z,16.4642
2023-05-25T08:06:25.166Z,16.2371
2023-05-25T08:07:26.928Z,16.2166
2023-05-25T08:08:28.189Z,15.8893
2023-05-25T08:09:29.165Z,16.0141
2023-05-25T08:10:30.311Z,16.3507
2023-05-25T08:13:34.172Z,15.9573
2023-05-25T08:14:36.239Z,15.9279
2023-05-25T08:15:37.528Z,15.9859
2023-05-25T08:17:40.373Z,15.3869
2023-05-25T08:18:42.536Z,15.1672
2023-05-25T08:19:43.751Z,15.3483
2023-05-25T08:20:45.943Z,15.0320
2023-05-25T08:21:48.053Z,15.0015
2023-05-25T08:22:49.927Z,14.8541
2023-05-25T08:23:50.951Z,14.8839
2023-05-25T08:24:52.754Z,14.9351
2023-05-25T08:25:54.672Z,14.8905
2023-05-25T08:26:56.414Z,14.7653
2023-05-25T08:27:56.780Z,14.6822
2023-05-25T08:28:57.570Z,14.2914
2023-05-25T08:29:58.818Z,14.3761
2023-05-25T08:31:00.679Z,14.5320
2023-05-25T08:32:01.876Z,14.9220
2023-05-25T08:33:02.883Z,15.2740
2023-05-25T08:34:04.457Z,14.9600
2023-05-25T08:35:05.367Z,15.1515
2023-05-25T08:36:06.374Z,15.0578
2023-05-25T08:37:07.458Z,15.1561
2023-05-25T08:38:09.217Z,15.4416
2023-05-25T08:39:10.406Z,15.8259
2023-05-25T08:40:11.609Z,15.7562
2023-05-25T08:41:13.316Z,15.7925
2023-05-25T08:42:14.187Z,15.9917
2023-05-25T08:43:15.979Z,16.0305
2023-05-25T08:44:16.949Z,15.8294
2023-05-25T08:45:33.397Z,15.7320
2023-05-25T08:48:53.196Z,15.1907
2023-05-25T08:49:54.040Z,14.8899
2023-05-25T08:50:55.422Z,15.0358
2023-05-25T08:51:56.267Z,15.2347
2023-05-25T08:52:57.773Z,15.3671
2023-05-25T08:53:59.692Z,16.0444
2023-05-25T08:55:00.693Z,16.2706
2023-05-25T08:56:02.207Z,16.1012
2023-05-25T08:57:03.918Z,16.4064
2023-05-25T08:58:04.571Z,16.4770
2023-05-25T08:59:06.972Z,16.8089
2023-05-25T09:00:05.760Z,16.9976
2023-05-25T09:01:07.248Z,16.9822
2023-05-25T09:02:08.476Z,16.8773
2023-05-25T09:03:09.532Z,16.6757
2023-05-25T09:04:10.447Z,16.5591
2023-05-25T09:05:11.734Z,16.6974
2023-05-25T09:06:12.701Z,16.6434
2023-05-25T09:07:13.802Z,16.8424
2023-05-25T09:08:14.922Z,16.7802
2023-05-25T09:09:16.026Z,16.6804
2023-05-25T09:10:18.163Z,16.2823
2023-05-25T09:11:34.886Z,16.3906
2023-05-25T09:13:53.034Z,16.6567
2023-05-25T09:14:53.636Z,16.2457
2023-05-25T09:17:56.051Z,15.9109
2023-05-25T09:19:59.494Z,15.9342
2023-05-25T09:21:00.256Z,15.7253
2023-05-25T09:22:14.227Z,15.6403
2023-05-25T09:23:03.873Z,15.5598
2023-05-25T09:24:04.993Z,15.4600
2023-05-25T09:25:05.385Z,15.4064
2023-05-25T09:26:07.070Z,15.4335
2023-05-25T09:27:08.039Z,15.5931
2023-05-25T09:28:24.634Z,15.7570
2023-05-25T09:33:44.543Z,16.6279
2023-05-25T09:34:46.449Z,17.1468
2023-05-25T09:35:48.445Z,17.5573
2023-05-25T09:36:48.589Z,17.3443
2023-05-25T09:37:50.493Z,17.4756
2023-05-25T09:41:53.690Z,17.9145
2023-05-25T09:42:54.728Z,17.6845
2023-05-25T09:44:06.616Z,17.5508
2023-05-25T09:44:57.395Z,17.6213
2023-05-25T09:45:59.267Z,17.6605
2023-05-25T09:47:00.532Z,17.5332
2023-05-25T09:48:02.087Z,17.5239
2023-05-25T09:49:03.900Z,17.7680
2023-05-25T09:50:05.938Z,17.6369
2023-05-25T09:51:07.391Z,18.0533
2023-05-25T09:52:09.196Z,17.7695
2023-05-25T09:53:10.532Z,17.5350
2023-05-25T09:55:12.155Z,17.2932
2023-05-25T09:56:13.056Z,17.0166
2023-05-25T09:57:15.799Z,17.2945
2023-05-25T09:58:18.021Z,17.8637
2023-05-25T09:59:19.972Z,18.2764
2023-05-25T10:00:21.038Z,18.4627
2023-05-25T10:01:22.158Z,18.2171
2023-05-25T10:02:23.713Z,18.3851
2023-05-25T10:03:25.535Z,18.3227
2023-05-25T10:04:27.282Z,18.1603
2023-05-25T10:05:29.410Z,18.3416
2023-05-25T10:06:31.139Z,18.0774
2023-05-25T10:07:32.807Z,18.3580
2023-05-25T10:08:33.997Z,18.1921
2023-05-25T10:09:36.920Z,18.4008
2023-05-25T10:10:38.068Z,18.1356
2023-05-25T10:11:39.203Z,17.4393
2023-05-25T10:12:40.306Z,17.4703
2023-05-25T10:13:42.028Z,17.3940
2023-05-25T10:14:43.833Z,17.1605
2023-05-25T10:15:45.652Z,17.3943
2023-05-25T10:26:58.065Z,17.7189
2023-05-25T10:27:59.871Z,17.9259
2023-05-25T10:29:00.977Z,18.1597
2023-05-25T10:31:02.068Z,18.0953
2023-05-25T10:32:03.740Z,18.1646
2023-05-25T10:33:04.897Z,18.6027
2023-05-25T10:34:05.883Z,18.4673
2023-05-25T10:35:06.825Z,18.3524
2023-05-25T10:36:10.633Z,18.2952
2023-05-25T10:37:08.215Z,18.5156
2023-05-25T10:38:09.888Z,18.1335
2023-05-25T10:39:10.800Z,18.3850
2023-05-25T10:40:11.787Z,17.8604
2023-05-25T10:41:12.964Z,17.8253
2023-05-25T10:42:13.868Z,17.8241
2023-05-25T10:43:18.437Z,17.5651
2023-05-25T10:48:18.345Z,17.4390
2023-05-25T10:49:19.319Z,17.2653
2023-05-25T10:50:20.140Z,17.4055
2023-05-25T10:51:21.081Z,17.4235
2023-05-25T10:52:21.916Z,17.4697
2023-05-25T10:53:22.808Z,17.6281
2023-05-25T10:54:24.340Z,17.7152
2023-05-25T10:55:26.263Z,17.8735
2023-05-25T10:56:27.204Z,18.0100
2023-05-25T10:57:28.166Z,17.7720
2023-05-25T10:58:29.094Z,18.1255
2023-05-25T10:59:30.038Z,18.1910
2023-05-25T11:00:30.974Z,18.3212
2023-05-25T11:01:33.116Z,17.9291
2023-05-25T11:02:34.474Z,17.9741
2023-05-25T11:03:34.646Z,17.8984
2023-05-25T11:04:35.716Z,18.2779
2023-05-25T11:05:36.765Z,18.2846
2023-05-25T11:06:37.798Z,17.8710
2023-05-25T11:07:38.762Z,17.7547
2023-05-25T11:08:40.295Z,17.9947
2023-05-25T11:09:41.311Z,17.7904
2023-05-25T11:10:42.231Z,17.6794
2023-05-25T11:11:43.263Z,17.8797
2023-05-25T11:12:45.589Z,18.2321
2023-05-25T11:14:45.636Z,18.8661
2023-05-25T11:15:46.736Z,19.0238
2023-05-25T11:16:49.135Z,19.0290
2023-05-25T11:17:50.316Z,19.0934
2023-05-25T11:22:54.707Z,19.2846
2023-05-25T11:23:56.406Z,19.0811
2023-05-25T11:24:57.915Z,18.9021
2023-05-25T11:27:00.553Z,19.4978
2023-05-25T11:28:02.334Z,19.5437
2023-05-25T11:30:05.311Z,19.0922
2023-05-25T11:31:06.808Z,18.8852
2023-05-25T11:32:07.986Z,18.5396
2023-05-25T11:33:10.375Z,18.7251
2023-05-25T11:34:12.204Z,18.2613
2023-05-25T11:35:14.761Z,18.4398
2023-05-25T11:36:15.753Z,18.4574
2023-05-25T11:37:17.770Z,18.7362
2023-05-25T11:38:19.478Z,18.8884
2023-05-25T11:39:22.883Z,19.1463
2023-05-25T11:40:20.387Z,19.2303
2023-05-25T11:42:23.271Z,19.4839
2023-05-25T11:43:24.182Z,19.5206
2023-05-25T11:44:25.245Z,19.6265
2023-05-25T11:45:27.761Z,19.2634
2023-05-25T11:46:29.571Z,19.3343
2023-05-25T11:47:33.106Z,19.5791
2023-05-25T11:48:31.812Z,19.8852
2023-05-25T11:49:33.425Z,20.1507
2023-05-25T11:50:34.306Z,20.0439
2023-05-25T11:51:35.392Z,19.8289
2023-05-25T11:52:37.344Z,20.7139
2023-05-25T11:53:38.535Z,21.0874
2023-05-25T11:54:40.065Z,21.6571
2023-05-25T11:55:41.407Z,22.1587
2023-05-25T11:56:41.497Z,21.6185
2023-05-25T11:57:42.685Z,21.1248
2023-05-25T11:58:44.950Z,21.6809
2023-05-25T12:11:01.251Z,21.3690
2023-05-25T12:12:03.055Z,20.8552
2023-05-25T12:13:03.354Z,20.8255
2023-05-25T12:14:05.529Z,21.8066
2023-05-25T12:15:06.997Z,21.9612
2023-05-25T12:16:08.484Z,22.6574
2023-05-25T12:17:10.778Z,23.6191
2023-05-25T12:19:12.392Z,22.4092
2023-05-25T12:20:13.839Z,22.1948
2023-05-25T12:21:14.229Z,22.1498
2023-05-25T12:23:16.217Z,22.0366
2023-05-25T12:24:18.026Z,21.4947
2023-05-25T12:37:34.129Z,22.2510
2023-05-25T12:38:35.609Z,21.8011
2023-05-25T12:39:37.277Z,20.7802
2023-05-25T12:40:38.746Z,20.6824
2023-05-25T12:41:40.562Z,20.8352
2023-05-25T12:42:41.917Z,20.6355
2023-05-25T12:43:43.384Z,21.2909
2023-05-25T12:44:44.999Z,21.0243
2023-05-25T12:45:46.297Z,20.4432
2023-05-25T12:46:47.599Z,20.0700
2023-05-25T12:47:49.253Z,19.8216
2023-05-25T12:48:50.604Z,20.0010
2023-05-25T12:49:51.620Z,20.2864
2023-05-25T12:50:53.666Z,20.4176
2023-05-25T12:51:52.941Z,20.5024
2023-05-25T12:52:54.499Z,20.4796
2023-05-25T12:53:56.074Z,20.5065
2023-05-25T12:54:56.343Z,20.6480
2023-05-25T12:55:57.244Z,20.1634
2023-05-25T12:56:57.490Z,20.3796
2023-05-25T12:57:58.860Z,21.1718
2023-05-25T12:59:00.873Z,21.0825
2023-05-25T13:00:02.712Z,21.6862
2023-05-25T13:01:02.774Z,21.7274
2023-05-25T13:02:04.762Z,21.5380
2023-05-25T13:03:06.864Z,21.4241
2023-05-25T13:04:07.887Z,21.0721
2023-05-25T13:05:09.482Z,21.2205
2023-05-25T13:06:11.669Z,21.1162
2023-05-25T13:07:13.599Z,21.0471
2023-05-25T13:08:15.031Z,20.8516
2023-05-25T13:09:16.750Z,20.6577
2023-05-25T13:10:18.788Z,20.9377
2023-05-25T13:11:20.538Z,21.1570
2023-05-25T13:12:21.960Z,21.4150
2023-05-25T13:13:23.691Z,21.6264
2023-05-25T13:14:25.198Z,21.6900
2023-05-25T13:15:26.547Z,21.6662
2023-05-25T13:16:27.508Z,21.8104
2023-05-25T13:17:29.515Z,22.0361
2023-05-25T13:18:31.047Z,22.2684
2023-05-25T13:19:32.735Z,22.1084
2023-05-25T13:20:34.114Z,22.6576
2023-05-25T13:21:35.839Z,22.8713
2023-05-25T13:22:37.446Z,22.6079
2023-05-25T13:23:37.642Z,22.4913
2023-05-25T13:24:39.058Z,22.6727
2023-05-25T13:25:40.347Z,22.3623
2023-05-25T13:26:41.573Z,21.7538
2023-05-25T13:27:42.853Z,21.0074
2023-05-25T13:28:44.223Z,21.1466
2023-05-25T13:29:45.596Z,20.9804
2023-05-25T13:30:46.924Z,20.9115
2023-05-25T13:31:48.551Z,21.2820
2023-05-25T13:32:51.673Z,21.5668
2023-05-25T13:33:51.186Z,21.6839
2023-05-25T13:34:52.699Z,21.7728
2023-05-25T13:35:53.137Z,22.1230
2023-05-25T13:36:54.419Z,22.3654
2023-05-25T13:37:55.164Z,22.2124
2023-05-25T13:38:56.519Z,22.2033
2023-05-25T13:39:57.736Z,21.9510
2023-05-25T13:40:58.907Z,22.4137
2023-05-25T13:42:00.632Z,23.2090
2023-05-25T13:43:02.055Z,24.7731
2023-05-25T13:44:03.524Z,24.4277
2023-05-25T13:45:03.832Z,23.6405
2023-05-25T13:46:04.597Z,23.1783
2023-05-25T13:47:06.707Z,22.3120
2023-05-25T13:48:08.464Z,21.9384
2023-05-25T13:49:10.134Z,21.7153
2023-05-25T13:50:11.581Z,21.7264
2023-05-25T13:51:12.977Z,21.9338
2023-05-25T13:52:14.579Z,21.7965
2023-05-25T13:53:15.995Z,20.8996
2023-05-25T13:54:17.598Z,20.6331
2023-05-25T13:55:18.966Z,20.3205
2023-05-25T13:56:19.613Z,20.2556
2023-05-25T13:57:20.929Z,20.1541
2023-05-25T13:58:22.234Z,20.9105
2023-05-25T13:59:22.683Z,20.7498
2023-05-25T14:00:24.059Z,20.7696
2023-05-25T14:01:25.145Z,21.3305
2023-05-25T14:02:26.588Z,21.5166
2023-05-25T14:03:28.579Z,21.8560
2023-05-25T14:04:30.148Z,21.9796
2023-05-25T14:05:31.680Z,21.5640
2023-05-25T14:06:32.634Z,21.4480
2023-05-25T14:07:33.873Z,20.7980
2023-05-25T14:08:35.023Z,20.5118
2023-05-25T14:09:36.347Z,20.1806
2023-05-25T14:10:37.559Z,20.2671
2023-05-25T14:11:39.633Z,20.2586
2023-05-25T14:12:39.044Z,19.6398
2023-05-25T14:13:40.838Z,19.9342
2023-05-25T14:14:42.453Z,20.5200
2023-05-25T14:15:43.877Z,20.7058
2023-05-25T14:16:44.057Z,21.0478
2023-05-25T14:17:46.333Z,21.9258
2023-05-25T14:18:47.291Z,22.7099
2023-05-25T14:19:47.598Z,23.1063
2023-05-25T14:22:50.964Z,22.8585
2023-05-25T14:23:51.890Z,22.7665
2023-05-25T14:24:53.107Z,22.6322
2023-05-25T14:25:54.230Z,22.5906
2023-05-25T14:26:55.406Z,21.8175
2023-05-25T14:27:56.438Z,22.1924
2023-05-25T14:28:57.741Z,22.0841
2023-05-25T14:29:58.805Z,21.8121